sensor_id;sensor_type;location;lat;lon;timestamp;pressure;altitude;pressure_sealevel;temperature;humidity
33151;BME280;19508;42.578;23.416;2023-04-28T00:01:30;93878.63;;;7.40;46.73
33151;BME280;19508;42.578;23.416;2023-04-28T00:03:56;93870.34;;;7.42;46.38
33151;BME280;19508;42.578;23.416;2023-04-28T00:06:22;93865.00;;;7.30;47.06
33151;BME280;19508;42.578;23.416;2023-04-28T00:08:48;93874.44;;;7.32;46.89
33151;BME280;19508;42.578;23.416;2023-04-28T00:11:13;93866.50;;;7.26;47.02
33151;BME280;19508;42.578;23.416;2023-04-28T00:13:38;93870.59;;;7.28;47.00
33151;BME280;19508;42.578;23.416;2023-04-28T00:16:04;93876.63;;;7.24;47.08
33151;BME280;19508;42.578;23.416;2023-04-28T00:18:30;93872.44;;;7.16;47.09
33151;BME280;19508;42.578;23.416;2023-04-28T00:20:55;93873.47;;;7.15;47.23
33151;BME280;19508;42.578;23.416;2023-04-28T00:23:21;93867.41;;;7.08;47.11
33151;BME280;19508;42.578;23.416;2023-04-28T00:25:50;93869.53;;;7.18;47.25
33151;BME280;19508;42.578;23.416;2023-04-28T00:28:16;93869.16;;;7.02;47.29
33151;BME280;19508;42.578;23.416;2023-04-28T00:30:41;93867.44;;;7.20;46.80
33151;BME280;19508;42.578;23.416;2023-04-28T00:33:07;93867.78;;;7.12;46.96
33151;BME280;19508;42.578;23.416;2023-04-28T00:35:32;93877.56;;;7.18;47.19
33151;BME280;19508;42.578;23.416;2023-04-28T00:37:58;93873.38;;;7.22;46.97
33151;BME280;19508;42.578;23.416;2023-04-28T00:40:32;93875.25;;;7.10;47.23
33151;BME280;19508;42.578;23.416;2023-04-28T00:42:57;93879.06;;;7.02;47.22
33151;BME280;19508;42.578;23.416;2023-04-28T00:45:22;93881.59;;;6.97;47.41
33151;BME280;19508;42.578;23.416;2023-04-28T00:47:48;93883.94;;;7.05;47.52
33151;BME280;19508;42.578;23.416;2023-04-28T00:50:14;93887.88;;;6.91;47.68
33151;BME280;19508;42.578;23.416;2023-04-28T00:52:42;93875.44;;;6.96;47.56
33151;BME280;19508;42.578;23.416;2023-04-28T00:55:08;93881.94;;;7.00;47.56
33151;BME280;19508;42.578;23.416;2023-04-28T00:57:34;93888.34;;;6.88;47.97
33151;BME280;19508;42.578;23.416;2023-04-28T01:00:01;93884.84;;;6.87;48.36
33151;BME280;19508;42.578;23.416;2023-04-28T01:02:28;93881.91;;;6.77;48.34
33151;BME280;19508;42.578;23.416;2023-04-28T01:04:55;93895.03;;;6.67;48.58
33151;BME280;19508;42.578;23.416;2023-04-28T01:07:21;93888.81;;;6.55;49.29
33151;BME280;19508;42.578;23.416;2023-04-28T01:09:46;93894.88;;;6.62;48.48
33151;BME280;19508;42.578;23.416;2023-04-28T01:12:12;93892.22;;;6.62;48.30
33151;BME280;19508;42.578;23.416;2023-04-28T01:14:37;93884.53;;;6.65;48.73
33151;BME280;19508;42.578;23.416;2023-04-28T01:17:04;93886.28;;;6.60;48.61
33151;BME280;19508;42.578;23.416;2023-04-28T01:19:29;93886.63;;;6.63;49.10
33151;BME280;19508;42.578;23.416;2023-04-28T01:21:55;93883.66;;;6.41;49.72
33151;BME280;19508;42.578;23.416;2023-04-28T01:24:20;93895.31;;;6.29;51.44
33151;BME280;19508;42.578;23.416;2023-04-28T01:26:46;93888.13;;;6.11;50.56
33151;BME280;19508;42.578;23.416;2023-04-28T01:29:11;93907.28;;;6.26;50.55
33151;BME280;19508;42.578;23.416;2023-04-28T01:31:37;93905.75;;;6.18;49.88
33151;BME280;19508;42.578;23.416;2023-04-28T01:34:02;93901.03;;;6.32;50.10
33151;BME280;19508;42.578;23.416;2023-04-28T01:36:28;93900.75;;;6.22;50.07
33151;BME280;19508;42.578;23.416;2023-04-28T01:38:53;93901.94;;;6.26;50.64
33151;BME280;19508;42.578;23.416;2023-04-28T01:41:19;93903.56;;;6.27;48.93
33151;BME280;19508;42.578;23.416;2023-04-28T01:43:44;93905.19;;;6.28;49.90
33151;BME280;19508;42.578;23.416;2023-04-28T01:46:10;93904.84;;;6.25;49.85
33151;BME280;19508;42.578;23.416;2023-04-28T01:48:35;93899.78;;;6.35;49.47
33151;BME280;19508;42.578;23.416;2023-04-28T01:51:01;93894.97;;;6.25;49.17
33151;BME280;19508;42.578;23.416;2023-04-28T01:53:26;93902.50;;;6.46;49.01
33151;BME280;19508;42.578;23.416;2023-04-28T01:55:52;93898.22;;;6.27;49.32
33151;BME280;19508;42.578;23.416;2023-04-28T01:58:18;93900.63;;;6.17;50.37
33151;BME280;19508;42.578;23.416;2023-04-28T02:00:43;93896.91;;;6.00;51.36
33151;BME280;19508;42.578;23.416;2023-04-28T02:03:09;93892.47;;;5.69;52.60
33151;BME280;19508;42.578;23.416;2023-04-28T02:05:34;93913.50;;;5.65;53.47
33151;BME280;19508;42.578;23.416;2023-04-28T02:07:59;93908.78;;;5.42;54.59
33151;BME280;19508;42.578;23.416;2023-04-28T02:10:25;93909.41;;;5.37;55.08
33151;BME280;19508;42.578;23.416;2023-04-28T02:12:50;93910.81;;;5.22;55.92
33151;BME280;19508;42.578;23.416;2023-04-28T02:15:16;93903.22;;;5.19;56.43
33151;BME280;19508;42.578;23.416;2023-04-28T02:17:41;93904.94;;;5.13;56.73
33151;BME280;19508;42.578;23.416;2023-04-28T02:20:07;93916.72;;;4.99;57.21
33151;BME280;19508;42.578;23.416;2023-04-28T02:22:32;93911.22;;;4.94;57.75
33151;BME280;19508;42.578;23.416;2023-04-28T02:24:58;93916.78;;;4.92;58.02
33151;BME280;19508;42.578;23.416;2023-04-28T02:27:23;93920.88;;;4.63;58.44
33151;BME280;19508;42.578;23.416;2023-04-28T02:29:48;93918.81;;;4.65;59.44
33151;BME280;19508;42.578;23.416;2023-04-28T02:32:14;93908.84;;;4.54;59.67
33151;BME280;19508;42.578;23.416;2023-04-28T02:34:39;93930.16;;;4.54;60.09
33151;BME280;19508;42.578;23.416;2023-04-28T02:37:05;93916.28;;;4.39;60.60
33151;BME280;19508;42.578;23.416;2023-04-28T02:39:30;93921.28;;;4.22;61.19
33151;BME280;19508;42.578;23.416;2023-04-28T02:41:57;93925.00;;;4.14;61.28
33151;BME280;19508;42.578;23.416;2023-04-28T02:44:22;93941.38;;;4.18;60.74
33151;BME280;19508;42.578;23.416;2023-04-28T02:46:48;93944.69;;;4.20;61.23
33151;BME280;19508;42.578;23.416;2023-04-28T02:49:13;93934.94;;;3.94;61.67
33151;BME280;19508;42.578;23.416;2023-04-28T02:51:39;93948.78;;;4.09;61.24
33151;BME280;19508;42.578;23.416;2023-04-28T02:54:04;93937.53;;;4.07;61.36
33151;BME280;19508;42.578;23.416;2023-04-28T02:56:30;93933.84;;;4.08;61.13
33151;BME280;19508;42.578;23.416;2023-04-28T02:58:55;93946.00;;;3.91;62.04
33151;BME280;19508;42.578;23.416;2023-04-28T03:01:21;93948.03;;;3.95;61.57
33151;BME280;19508;42.578;23.416;2023-04-28T03:03:47;93951.97;;;3.66;62.00
33151;BME280;19508;42.578;23.416;2023-04-28T03:06:12;93945.63;;;3.74;61.91
33151;BME280;19508;42.578;23.416;2023-04-28T03:08:44;93938.66;;;3.80;62.11
33151;BME280;19508;42.578;23.416;2023-04-28T03:11:09;93951.59;;;3.63;62.24
33151;BME280;19508;42.578;23.416;2023-04-28T03:13:35;93953.06;;;3.46;62.69
33151;BME280;19508;42.578;23.416;2023-04-28T03:16:01;93948.13;;;3.49;62.69
33151;BME280;19508;42.578;23.416;2023-04-28T03:18:27;93953.47;;;3.36;63.66
33151;BME280;19508;42.578;23.416;2023-04-28T03:20:52;93950.81;;;3.43;63.59
33151;BME280;19508;42.578;23.416;2023-04-28T03:23:17;93949.38;;;3.47;63.88
33151;BME280;19508;42.578;23.416;2023-04-28T03:25:43;93955.72;;;3.39;63.64
33151;BME280;19508;42.578;23.416;2023-04-28T03:28:08;93967.19;;;3.46;64.16
33151;BME280;19508;42.578;23.416;2023-04-28T03:30:34;93963.31;;;3.35;64.37
33151;BME280;19508;42.578;23.416;2023-04-28T03:33:00;93966.38;;;3.39;64.29
33151;BME280;19508;42.578;23.416;2023-04-28T03:35:25;93976.38;;;3.50;64.79
33151;BME280;19508;42.578;23.416;2023-04-28T03:37:51;93980.50;;;3.59;64.03
33151;BME280;19508;42.578;23.416;2023-04-28T03:40:17;93983.34;;;3.64;63.92
33151;BME280;19508;42.578;23.416;2023-04-28T03:42:42;93979.63;;;3.65;63.58
33151;BME280;19508;42.578;23.416;2023-04-28T03:45:08;93984.16;;;3.72;63.41
33151;BME280;19508;42.578;23.416;2023-04-28T03:47:33;93992.34;;;3.70;63.81
33151;BME280;19508;42.578;23.416;2023-04-28T03:49:59;93979.25;;;3.49;63.90
33151;BME280;19508;42.578;23.416;2023-04-28T03:52:25;94003.81;;;3.57;63.80
33151;BME280;19508;42.578;23.416;2023-04-28T03:54:51;93982.94;;;3.54;64.47
33151;BME280;19508;42.578;23.416;2023-04-28T03:57:16;93998.50;;;3.57;64.24
33151;BME280;19508;42.578;23.416;2023-04-28T03:59:42;94011.63;;;3.52;64.45
33151;BME280;19508;42.578;23.416;2023-04-28T04:02:07;94014.06;;;3.47;64.55
33151;BME280;19508;42.578;23.416;2023-04-28T04:04:33;94018.16;;;3.50;64.25
33151;BME280;19508;42.578;23.416;2023-04-28T04:06:58;94009.16;;;3.31;64.93
33151;BME280;19508;42.578;23.416;2023-04-28T04:09:24;94024.31;;;3.37;64.70
33151;BME280;19508;42.578;23.416;2023-04-28T04:11:49;94031.28;;;3.51;64.27
33151;BME280;19508;42.578;23.416;2023-04-28T04:14:15;94030.88;;;3.54;64.39
33151;BME280;19508;42.578;23.416;2023-04-28T04:16:40;94038.66;;;3.62;64.24
33151;BME280;19508;42.578;23.416;2023-04-28T04:19:06;94020.63;;;3.64;64.79
33151;BME280;19508;42.578;23.416;2023-04-28T04:21:31;94019.81;;;3.77;64.27
33151;BME280;19508;42.578;23.416;2023-04-28T04:23:56;94022.59;;;4.15;63.68
33151;BME280;19508;42.578;23.416;2023-04-28T04:26:22;94031.72;;;4.46;61.85
33151;BME280;19508;42.578;23.416;2023-04-28T04:28:47;94035.47;;;4.76;61.24
33151;BME280;19508;42.578;23.416;2023-04-28T04:31:13;94015.84;;;5.02;60.21
33151;BME280;19508;42.578;23.416;2023-04-28T04:33:39;94037.50;;;5.51;59.67
33151;BME280;19508;42.578;23.416;2023-04-28T04:36:05;94030.97;;;5.97;57.46
33151;BME280;19508;42.578;23.416;2023-04-28T04:38:30;94027.91;;;6.36;55.23
33151;BME280;19508;42.578;23.416;2023-04-28T04:40:56;94040.44;;;6.91;55.31
33151;BME280;19508;42.578;23.416;2023-04-28T04:43:21;94038.78;;;7.38;51.31
33151;BME280;19508;42.578;23.416;2023-04-28T04:45:47;94035.16;;;8.09;49.59
33151;BME280;19508;42.578;23.416;2023-04-28T04:48:13;94038.25;;;8.48;47.71
33151;BME280;19508;42.578;23.416;2023-04-28T04:50:39;94042.44;;;8.44;48.21
33151;BME280;19508;42.578;23.416;2023-04-28T04:53:05;94035.44;;;8.43;47.63
33151;BME280;19508;42.578;23.416;2023-04-28T04:55:30;94027.25;;;8.50;48.23
33151;BME280;19508;42.578;23.416;2023-04-28T04:57:56;94041.56;;;8.90;47.00
33151;BME280;19508;42.578;23.416;2023-04-28T05:00:21;94040.63;;;9.13;46.33
33151;BME280;19508;42.578;23.416;2023-04-28T05:02:47;94038.94;;;8.95;46.79
33151;BME280;19508;42.578;23.416;2023-04-28T05:05:12;94038.19;;;8.71;47.37
33151;BME280;19508;42.578;23.416;2023-04-28T05:07:38;94050.06;;;8.87;45.88
33151;BME280;19508;42.578;23.416;2023-04-28T05:10:03;94047.72;;;8.91;44.86
33151;BME280;19508;42.578;23.416;2023-04-28T05:12:30;94047.00;;;9.07;45.29
33151;BME280;19508;42.578;23.416;2023-04-28T05:14:56;94051.34;;;9.53;43.93
33151;BME280;19508;42.578;23.416;2023-04-28T05:17:21;94042.81;;;9.28;43.80
33151;BME280;19508;42.578;23.416;2023-04-28T05:19:46;94053.72;;;9.50;44.70
33151;BME280;19508;42.578;23.416;2023-04-28T05:22:12;94051.09;;;9.55;43.21
33151;BME280;19508;42.578;23.416;2023-04-28T05:24:37;94033.22;;;9.77;43.78
33151;BME280;19508;42.578;23.416;2023-04-28T05:27:02;94024.91;;;10.12;42.00
33151;BME280;19508;42.578;23.416;2023-04-28T05:29:28;94038.53;;;10.06;41.48
33151;BME280;19508;42.578;23.416;2023-04-28T05:31:53;94045.88;;;10.10;41.50
33151;BME280;19508;42.578;23.416;2023-04-28T05:34:19;94026.78;;;10.12;41.91
33151;BME280;19508;42.578;23.416;2023-04-28T05:36:44;94036.34;;;10.53;40.52
33151;BME280;19508;42.578;23.416;2023-04-28T05:39:10;94037.22;;;10.42;41.79
33151;BME280;19508;42.578;23.416;2023-04-28T05:41:35;94033.84;;;10.90;40.78
33151;BME280;19508;42.578;23.416;2023-04-28T05:44:01;94040.53;;;10.27;41.59
33151;BME280;19508;42.578;23.416;2023-04-28T05:46:26;94031.72;;;10.92;40.33
33151;BME280;19508;42.578;23.416;2023-04-28T05:48:53;94036.97;;;11.26;39.71
33151;BME280;19508;42.578;23.416;2023-04-28T05:51:18;94039.50;;;11.59;39.36
33151;BME280;19508;42.578;23.416;2023-04-28T05:53:43;94036.69;;;12.03;39.11
33151;BME280;19508;42.578;23.416;2023-04-28T05:56:13;94043.09;;;11.70;37.79
33151;BME280;19508;42.578;23.416;2023-04-28T05:58:39;94049.47;;;11.81;39.12
33151;BME280;19508;42.578;23.416;2023-04-28T06:01:04;94035.56;;;12.26;37.83
33151;BME280;19508;42.578;23.416;2023-04-28T06:03:30;94048.22;;;11.67;40.04
33151;BME280;19508;42.578;23.416;2023-04-28T06:05:55;94046.38;;;11.45;38.73
33151;BME280;19508;42.578;23.416;2023-04-28T06:08:21;94050.47;;;12.34;37.64
33151;BME280;19508;42.578;23.416;2023-04-28T06:10:46;94052.94;;;12.08;38.01
33151;BME280;19508;42.578;23.416;2023-04-28T06:13:12;94038.16;;;12.48;36.22
33151;BME280;19508;42.578;23.416;2023-04-28T06:15:37;94046.97;;;12.81;36.33
33151;BME280;19508;42.578;23.416;2023-04-28T06:18:02;94047.47;;;12.67;37.09
33151;BME280;19508;42.578;23.416;2023-04-28T06:20:30;94057.34;;;12.20;35.67
33151;BME280;19508;42.578;23.416;2023-04-28T06:22:55;94043.19;;;12.82;35.94
33151;BME280;19508;42.578;23.416;2023-04-28T06:25:21;94054.88;;;13.35;34.07
33151;BME280;19508;42.578;23.416;2023-04-28T06:27:46;94037.78;;;13.29;34.52
33151;BME280;19508;42.578;23.416;2023-04-28T06:30:18;94048.50;;;13.87;33.12
33151;BME280;19508;42.578;23.416;2023-04-28T06:32:46;94050.44;;;14.06;32.71
33151;BME280;19508;42.578;23.416;2023-04-28T06:35:12;94058.28;;;14.44;32.32
33151;BME280;19508;42.578;23.416;2023-04-28T06:37:38;94042.88;;;14.19;31.87
33151;BME280;19508;42.578;23.416;2023-04-28T06:40:03;94039.63;;;14.22;32.16
33151;BME280;19508;42.578;23.416;2023-04-28T06:42:29;94049.09;;;14.24;32.72
33151;BME280;19508;42.578;23.416;2023-04-28T06:44:54;94040.13;;;13.98;32.88
33151;BME280;19508;42.578;23.416;2023-04-28T06:47:20;94040.94;;;13.99;33.46
33151;BME280;19508;42.578;23.416;2023-04-28T06:49:46;94020.63;;;13.96;34.04
33151;BME280;19508;42.578;23.416;2023-04-28T06:52:14;94026.59;;;14.75;33.82
33151;BME280;19508;42.578;23.416;2023-04-28T06:54:40;94010.91;;;14.61;32.70
33151;BME280;19508;42.578;23.416;2023-04-28T06:57:05;94027.03;;;15.12;34.02
33151;BME280;19508;42.578;23.416;2023-04-28T06:59:30;94029.00;;;14.97;33.06
33151;BME280;19508;42.578;23.416;2023-04-28T07:01:56;94031.09;;;15.15;31.83
33151;BME280;19508;42.578;23.416;2023-04-28T07:04:21;94030.09;;;13.99;34.02
33151;BME280;19508;42.578;23.416;2023-04-28T07:06:47;94023.06;;;14.69;33.10
33151;BME280;19508;42.578;23.416;2023-04-28T07:09:12;94034.19;;;14.73;33.95
33151;BME280;19508;42.578;23.416;2023-04-28T07:11:38;94036.59;;;14.89;32.53
33151;BME280;19508;42.578;23.416;2023-04-28T07:14:03;94023.03;;;14.89;33.19
33151;BME280;19508;42.578;23.416;2023-04-28T07:16:29;94018.41;;;15.60;31.70
33151;BME280;19508;42.578;23.416;2023-04-28T07:18:55;94024.97;;;14.74;31.89
33151;BME280;19508;42.578;23.416;2023-04-28T07:21:20;94032.72;;;15.11;31.91
33151;BME280;19508;42.578;23.416;2023-04-28T07:23:46;94023.97;;;15.39;33.19
33151;BME280;19508;42.578;23.416;2023-04-28T07:26:13;94028.47;;;14.84;31.08
33151;BME280;19508;42.578;23.416;2023-04-28T07:28:40;94032.47;;;15.82;30.94
33151;BME280;19508;42.578;23.416;2023-04-28T07:31:06;94024.63;;;16.49;30.19
33151;BME280;19508;42.578;23.416;2023-04-28T07:33:31;94024.44;;;15.51;30.99
33151;BME280;19508;42.578;23.416;2023-04-28T07:36:00;94017.53;;;16.53;30.75
33151;BME280;19508;42.578;23.416;2023-04-28T07:38:25;94020.88;;;17.03;29.88
33151;BME280;19508;42.578;23.416;2023-04-28T07:40:51;94036.63;;;17.06;29.02
33151;BME280;19508;42.578;23.416;2023-04-28T07:43:16;94024.34;;;17.08;29.41
33151;BME280;19508;42.578;23.416;2023-04-28T07:45:42;94030.00;;;16.88;27.70
33151;BME280;19508;42.578;23.416;2023-04-28T07:48:10;94027.91;;;16.12;28.79
33151;BME280;19508;42.578;23.416;2023-04-28T07:50:35;94025.88;;;17.19;27.97
33151;BME280;19508;42.578;23.416;2023-04-28T07:53:00;94029.44;;;16.57;27.54
33151;BME280;19508;42.578;23.416;2023-04-28T07:55:26;94027.69;;;17.00;28.53
33151;BME280;19508;42.578;23.416;2023-04-28T07:57:51;94023.06;;;17.72;27.68
33151;BME280;19508;42.578;23.416;2023-04-28T08:00:17;94026.00;;;17.09;28.43
33151;BME280;19508;42.578;23.416;2023-04-28T08:02:43;94035.56;;;17.49;28.29
33151;BME280;19508;42.578;23.416;2023-04-28T08:05:08;94026.53;;;16.48;28.94
33151;BME280;19508;42.578;23.416;2023-04-28T08:07:34;94025.66;;;16.58;29.79
33151;BME280;19508;42.578;23.416;2023-04-28T08:10:01;94014.59;;;17.74;27.81
33151;BME280;19508;42.578;23.416;2023-04-28T08:12:27;94018.09;;;18.50;26.92
33151;BME280;19508;42.578;23.416;2023-04-28T08:14:52;94020.81;;;18.50;27.92
33151;BME280;19508;42.578;23.416;2023-04-28T08:17:17;94021.53;;;18.04;26.99
33151;BME280;19508;42.578;23.416;2023-04-28T08:19:43;94024.03;;;18.38;28.50
33151;BME280;19508;42.578;23.416;2023-04-28T08:22:11;94019.69;;;18.18;27.96
33151;BME280;19508;42.578;23.416;2023-04-28T08:24:36;94015.84;;;19.31;25.80
33151;BME280;19508;42.578;23.416;2023-04-28T08:27:02;94016.88;;;19.76;25.65
33151;BME280;19508;42.578;23.416;2023-04-28T08:29:31;94017.19;;;19.33;26.17
33151;BME280;19508;42.578;23.416;2023-04-28T08:32:03;94003.44;;;19.25;25.42
33151;BME280;19508;42.578;23.416;2023-04-28T08:34:31;94008.53;;;18.85;27.43
33151;BME280;19508;42.578;23.416;2023-04-28T08:36:56;94012.78;;;17.88;27.32
33151;BME280;19508;42.578;23.416;2023-04-28T08:39:22;94010.56;;;17.90;27.49
33151;BME280;19508;42.578;23.416;2023-04-28T08:41:48;94004.44;;;19.56;27.35
33151;BME280;19508;42.578;23.416;2023-04-28T08:44:13;94002.91;;;19.91;25.77
33151;BME280;19508;42.578;23.416;2023-04-28T08:46:43;94008.25;;;19.14;25.15
33151;BME280;19508;42.578;23.416;2023-04-28T08:49:14;94004.56;;;18.77;25.89
33151;BME280;19508;42.578;23.416;2023-04-28T08:51:49;93999.78;;;19.70;25.28
33151;BME280;19508;42.578;23.416;2023-04-28T08:54:18;94000.50;;;18.42;27.94
33151;BME280;19508;42.578;23.416;2023-04-28T08:56:45;93997.69;;;20.04;25.70
33151;BME280;19508;42.578;23.416;2023-04-28T08:59:11;94001.31;;;20.13;23.90
33151;BME280;19508;42.578;23.416;2023-04-28T09:01:37;93995.28;;;20.61;24.07
33151;BME280;19508;42.578;23.416;2023-04-28T09:04:03;93996.06;;;19.66;26.09
33151;BME280;19508;42.578;23.416;2023-04-28T09:06:36;94001.09;;;19.73;24.85
33151;BME280;19508;42.578;23.416;2023-04-28T09:11:59;93988.44;;;19.77;24.94
33151;BME280;19508;42.578;23.416;2023-04-28T09:14:32;93985.38;;;18.17;26.89
33151;BME280;19508;42.578;23.416;2023-04-28T09:16:59;93988.47;;;18.29;25.33
33151;BME280;19508;42.578;23.416;2023-04-28T09:19:35;93984.16;;;18.75;26.36
33151;BME280;19508;42.578;23.416;2023-04-28T09:22:01;93977.41;;;18.02;28.23
33151;BME280;19508;42.578;23.416;2023-04-28T09:24:39;93987.69;;;17.67;30.23
33151;BME280;19508;42.578;23.416;2023-04-28T09:27:07;93976.53;;;18.58;29.49
33151;BME280;19508;42.578;23.416;2023-04-28T09:29:35;93972.88;;;17.79;27.91
33151;BME280;19508;42.578;23.416;2023-04-28T09:32:18;93975.59;;;17.79;31.02
33151;BME280;19508;42.578;23.416;2023-04-28T09:34:45;93970.81;;;18.41;26.80
33151;BME280;19508;42.578;23.416;2023-04-28T09:37:30;93961.16;;;19.22;26.28
33151;BME280;19508;42.578;23.416;2023-04-28T09:40:01;93959.19;;;19.78;24.91
33151;BME280;19508;42.578;23.416;2023-04-28T09:45:05;93956.50;;;20.22;24.73
33151;BME280;19508;42.578;23.416;2023-04-28T09:47:32;93952.34;;;20.03;24.81
33151;BME280;19508;42.578;23.416;2023-04-28T09:50:04;93942.56;;;19.10;26.05
33151;BME280;19508;42.578;23.416;2023-04-28T09:52:32;93952.50;;;17.95;27.02
33151;BME280;19508;42.578;23.416;2023-04-28T09:55:00;93934.56;;;18.40;27.27
33151;BME280;19508;42.578;23.416;2023-04-28T09:57:29;93949.63;;;19.66;26.35
33151;BME280;19508;42.578;23.416;2023-04-28T09:59:56;93937.19;;;20.41;24.33
33151;BME280;19508;42.578;23.416;2023-04-28T10:02:23;93928.63;;;20.56;24.29
33151;BME280;19508;42.578;23.416;2023-04-28T10:04:49;93933.38;;;21.04;26.00
33151;BME280;19508;42.578;23.416;2023-04-28T10:07:16;93933.16;;;22.23;22.62
33151;BME280;19508;42.578;23.416;2023-04-28T10:09:43;93927.06;;;23.08;22.06
33151;BME280;19508;42.578;23.416;2023-04-28T10:12:13;93916.00;;;23.25;21.48
33151;BME280;19508;42.578;23.416;2023-04-28T10:14:40;93914.91;;;21.93;22.39
33151;BME280;19508;42.578;23.416;2023-04-28T10:17:06;93914.22;;;23.21;23.18
33151;BME280;19508;42.578;23.416;2023-04-28T10:19:33;93920.31;;;20.62;25.41
33151;BME280;19508;42.578;23.416;2023-04-28T10:27:29;93915.94;;;20.92;22.86
33151;BME280;19508;42.578;23.416;2023-04-28T10:30:16;93905.97;;;20.96;22.82
33151;BME280;19508;42.578;23.416;2023-04-28T10:32:43;93904.97;;;20.52;26.44
33151;BME280;19508;42.578;23.416;2023-04-28T10:43:08;93906.34;;;21.11;23.77
33151;BME280;19508;42.578;23.416;2023-04-28T10:48:22;93897.81;;;22.48;21.76
33151;BME280;19508;42.578;23.416;2023-04-28T10:58:56;93882.31;;;23.07;20.78
33151;BME280;19508;42.578;23.416;2023-04-28T11:01:32;93878.09;;;22.46;21.04
33151;BME280;19508;42.578;23.416;2023-04-28T11:04:06;93874.25;;;21.95;20.87
33151;BME280;19508;42.578;23.416;2023-04-28T11:16:57;93867.34;;;22.88;21.11
33151;BME280;19508;42.578;23.416;2023-04-28T11:19:29;93851.06;;;21.84;22.70
33151;BME280;19508;42.578;23.416;2023-04-28T11:21:56;93854.59;;;21.76;23.13
33151;BME280;19508;42.578;23.416;2023-04-28T11:24:22;93850.56;;;22.25;23.18
33151;BME280;19508;42.578;23.416;2023-04-28T11:26:51;93860.19;;;23.33;21.32
33151;BME280;19508;42.578;23.416;2023-04-28T11:29:17;93854.41;;;22.97;23.12
33151;BME280;19508;42.578;23.416;2023-04-28T11:31:49;93852.19;;;22.73;24.00
33151;BME280;19508;42.578;23.416;2023-04-28T11:34:18;93857.38;;;21.10;23.19
33151;BME280;19508;42.578;23.416;2023-04-28T11:36:45;93850.56;;;22.34;22.57
33151;BME280;19508;42.578;23.416;2023-04-28T11:39:11;93852.50;;;22.24;21.18
33151;BME280;19508;42.578;23.416;2023-04-28T11:41:39;93834.53;;;22.53;20.55
33151;BME280;19508;42.578;23.416;2023-04-28T11:44:20;93839.13;;;22.14;22.31
33151;BME280;19508;42.578;23.416;2023-04-28T11:46:47;93833.31;;;22.24;20.85
33151;BME280;19508;42.578;23.416;2023-04-28T11:49:16;93845.91;;;21.56;22.27
33151;BME280;19508;42.578;23.416;2023-04-28T11:51:42;93844.66;;;21.05;25.00
33151;BME280;19508;42.578;23.416;2023-04-28T11:54:10;93831.88;;;21.40;21.29
33151;BME280;19508;42.578;23.416;2023-04-28T11:56:42;93836.19;;;22.37;22.19
33151;BME280;19508;42.578;23.416;2023-04-28T11:59:11;93826.63;;;23.49;21.39
33151;BME280;19508;42.578;23.416;2023-04-28T12:01:48;93824.19;;;24.64;20.04
33151;BME280;19508;42.578;23.416;2023-04-28T12:07:06;93811.09;;;26.39;17.47
33151;BME280;19508;42.578;23.416;2023-04-28T12:09:35;93808.13;;;26.76;19.31
33151;BME280;19508;42.578;23.416;2023-04-28T12:12:09;93797.25;;;26.83;18.29
33151;BME280;19508;42.578;23.416;2023-04-28T12:17:28;93799.16;;;27.61;16.64
33151;BME280;19508;42.578;23.416;2023-04-28T12:19:54;93795.66;;;26.97;14.72
33151;BME280;19508;42.578;23.416;2023-04-28T12:22:21;93787.19;;;26.59;16.74
33151;BME280;19508;42.578;23.416;2023-04-28T12:25:07;93790.41;;;26.77;14.91
33151;BME280;19508;42.578;23.416;2023-04-28T12:27:34;93785.56;;;26.89;15.30
33151;BME280;19508;42.578;23.416;2023-04-28T12:30:03;93777.50;;;27.82;16.53
33151;BME280;19508;42.578;23.416;2023-04-28T12:32:37;93782.41;;;27.54;16.26
33151;BME280;19508;42.578;23.416;2023-04-28T12:35:04;93770.78;;;27.64;14.84
33151;BME280;19508;42.578;23.416;2023-04-28T12:37:30;93770.59;;;26.75;15.02
33151;BME280;19508;42.578;23.416;2023-04-28T12:39:56;93770.00;;;27.48;15.28
33151;BME280;19508;42.578;23.416;2023-04-28T12:42:22;93769.94;;;27.09;14.57
33151;BME280;19508;42.578;23.416;2023-04-28T12:44:48;93775.47;;;26.34;15.69
33151;BME280;19508;42.578;23.416;2023-04-28T12:47:15;93771.06;;;27.08;16.43
33151;BME280;19508;42.578;23.416;2023-04-28T12:49:42;93769.22;;;24.55;17.33
33151;BME280;19508;42.578;23.416;2023-04-28T12:52:08;93765.25;;;27.29;15.65
33151;BME280;19508;42.578;23.416;2023-04-28T12:54:33;93757.88;;;27.88;15.17
33151;BME280;19508;42.578;23.416;2023-04-28T12:56:59;93763.84;;;27.90;15.17
33151;BME280;19508;42.578;23.416;2023-04-28T12:59:24;93752.16;;;25.11;17.58
33151;BME280;19508;42.578;23.416;2023-04-28T13:01:50;93751.47;;;26.06;17.00
33151;BME280;19508;42.578;23.416;2023-04-28T13:04:17;93754.31;;;25.70;16.62
33151;BME280;19508;42.578;23.416;2023-04-28T13:06:45;93758.63;;;25.95;16.83
33151;BME280;19508;42.578;23.416;2023-04-28T13:09:11;93756.50;;;25.76;17.92
33151;BME280;19508;42.578;23.416;2023-04-28T13:11:38;93756.91;;;25.50;16.72
33151;BME280;19508;42.578;23.416;2023-04-28T13:14:04;93754.00;;;24.25;18.28
33151;BME280;19508;42.578;23.416;2023-04-28T13:16:29;93753.53;;;24.10;18.52
33151;BME280;19508;42.578;23.416;2023-04-28T13:18:55;93754.22;;;23.03;20.97
33151;BME280;19508;42.578;23.416;2023-04-28T13:21:23;93764.34;;;21.53;20.14
33151;BME280;19508;42.578;23.416;2023-04-28T13:23:49;93769.97;;;20.56;22.55
33151;BME280;19508;42.578;23.416;2023-04-28T13:26:15;93755.47;;;20.47;22.47
33151;BME280;19508;42.578;23.416;2023-04-28T13:28:40;93766.66;;;20.37;22.54
33151;BME280;19508;42.578;23.416;2023-04-28T13:31:06;93767.75;;;19.96;24.01
33151;BME280;19508;42.578;23.416;2023-04-28T13:33:33;93755.34;;;19.90;22.56
33151;BME280;19508;42.578;23.416;2023-04-28T13:35:58;93758.16;;;19.77;22.83
33151;BME280;19508;42.578;23.416;2023-04-28T13:38:24;93758.81;;;19.82;22.27